Time;durP1;ratioP1;P1;durP2;ratioP2;P2;SDS_P1;SDS_P2;PMS_P1;PMS_P2;Temp;Humidity;BMP_temperature;BMP_pressure;BME280_temperature;BME280_humidity;BME280_pressure;Samples;Min_cycle;Max_cycle;Signal;HPM_P1;HPM_P2
2023/08/18 00:00:37;;;;;;;8.80;5.30;;;;;;;25.28;59.68;97499.38;5131767;27;20219;-75
2023/08/18 00:03:02;;;;;;;12.73;5.47;;;;;;;25.21;59.88;97492.53;5111195;27;20888;-75
2023/08/18 00:05:28;;;;;;;5.77;5.17;;;;;;;25.16;59.90;97485.19;5138174;27;20737;-76
2023/08/18 00:07:53;;;;;;;5.90;5.03;;;;;;;25.10;60.11;97489.66;5137879;27;20242;-75
2023/08/18 00:10:18;;;;;;;7.83;4.83;;;;;;;24.97;58.50;97488.06;5145948;27;20216;-76
2023/08/18 00:12:44;;;;;;;6.70;4.97;;;;;;;24.99;58.20;97485.16;5111079;28;20192;-77
2023/08/18 00:15:09;;;;;;;6.23;4.90;;;;;;;24.94;57.84;97496.59;5120462;27;20705;-74
2023/08/18 00:17:35;;;;;;;4.93;4.33;;;;;;;24.92;58.44;97482.63;5123881;27;20641;-75
2023/08/18 00:20:02;;;;;;;13.93;4.40;;;;;;;24.90;58.81;97484.72;5127097;27;20204;-74
2023/08/18 00:22:28;;;;;;;5.33;4.83;;;;;;;24.93;58.39;97483.41;5135996;27;20448;-74
2023/08/18 00:24:55;;;;;;;6.10;4.50;;;;;;;24.88;58.46;97484.13;5136823;27;20470;-74
2023/08/18 00:27:21;;;;;;;6.20;4.60;;;;;;;24.92;58.34;97477.25;5137407;27;20988;-76
2023/08/18 00:29:47;;;;;;;5.87;4.70;;;;;;;24.96;57.89;97480.28;5136245;27;20476;-75
2023/08/18 00:32:12;;;;;;;8.43;5.40;;;;;;;24.95;58.19;97475.97;5135755;27;20227;-76
2023/08/18 00:34:37;;;;;;;9.13;5.17;;;;;;;24.92;58.13;97474.56;5131278;27;20188;-75
2023/08/18 00:37:03;;;;;;;7.17;4.80;;;;;;;24.88;57.74;97469.94;5129786;27;20259;-76
2023/08/18 00:39:28;;;;;;;9.73;4.90;;;;;;;24.88;57.90;97465.38;5128449;27;20204;-73
2023/08/18 00:41:54;;;;;;;8.67;4.70;;;;;;;24.88;57.86;97462.69;5123885;27;20188;-75
2023/08/18 00:44:19;;;;;;;8.17;4.63;;;;;;;24.85;58.16;97468.53;5125928;27;20188;-75
2023/08/18 00:46:45;;;;;;;6.10;4.43;;;;;;;24.85;58.26;97468.53;5145251;27;20286;-73
2023/08/18 00:49:11;;;;;;;7.27;4.60;;;;;;;24.82;58.26;97469.81;5127669;27;20204;-75
2023/08/18 00:51:38;;;;;;;8.43;4.90;;;;;;;24.76;59.30;97470.75;5092365;27;21201;-74
2023/08/18 00:54:04;;;;;;;7.80;5.10;;;;;;;24.78;59.57;97470.53;5086830;27;20180;-74
2023/08/18 00:56:29;;;;;;;10.70;4.70;;;;;;;24.70;59.66;97463.69;5106761;27;20436;-73
2023/08/18 00:58:55;;;;;;;8.57;4.90;;;;;;;24.67;59.75;97467.63;5077048;28;20701;-76
2023/08/18 01:01:21;;;;;;;10.00;5.23;;;;;;;24.62;60.46;97469.41;5130547;27;20220;-75
2023/08/18 01:03:47;;;;;;;7.30;4.33;;;;;;;24.59;60.26;97469.88;5105315;27;20551;-75
2023/08/18 01:06:12;;;;;;;5.90;4.40;;;;;;;24.50;60.49;97466.72;5127211;27;20429;-76
2023/08/18 01:08:37;;;;;;;10.57;4.60;;;;;;;24.47;60.01;97470.69;5133329;27;20205;-75
2023/08/18 01:11:30;;;;;;;6.63;4.67;;;;;;;24.49;60.01;97470.47;5137002;27;20214;-75
2023/08/18 01:14:22;;;;;;;5.83;4.23;;;;;;;24.44;60.49;97473.84;5114328;27;20274;-75
2023/08/18 01:16:53;;;;;;;5.57;4.50;;;;;;;24.44;60.11;97467.69;5134153;27;20428;-77
2023/08/18 01:19:20;;;;;;;10.50;4.60;;;;;;;24.43;60.42;97464.19;5122913;27;20461;-74
2023/08/18 01:21:49;;;;;;;7.87;5.17;;;;;;;24.42;60.77;97462.53;5131272;27;20433;-75
2023/08/18 01:24:14;;;;;;;10.47;4.67;;;;;;;24.37;60.79;97465.94;5123071;27;20437;-74
2023/08/18 01:26:41;;;;;;;9.37;5.13;;;;;;;24.35;60.46;97467.22;5144629;27;20772;-74
2023/08/18 01:29:07;;;;;;;9.50;4.87;;;;;;;24.34;60.19;97463.72;5138571;27;20562;-73
2023/08/18 01:31:34;;;;;;;7.30;4.40;;;;;;;24.33;60.00;97462.09;5150207;27;20516;-74
2023/08/18 01:34:05;;;;;;;7.90;4.40;;;;;;;24.29;59.80;97460.13;5106856;27;20548;-74
2023/08/18 01:36:41;;;;;;;6.30;4.67;;;;;;;24.22;59.62;97454.88;5124629;27;20432;-75
2023/08/18 01:39:09;;;;;;;8.00;4.67;;;;;;;24.21;59.25;97461.28;5127000;27;20424;-75
2023/08/18 01:41:34;;;;;;;8.13;4.33;;;;;;;24.19;58.98;97460.72;5135727;27;20429;-76
2023/08/18 01:44:00;;;;;;;10.03;4.70;;;;;;;24.17;59.17;97462.81;5133271;27;20788;-75
2023/08/18 01:46:25;;;;;;;6.70;4.80;;;;;;;24.16;59.54;97466.53;5141405;27;20563;-75
2023/08/18 01:48:51;;;;;;;6.43;4.57;;;;;;;24.16;59.61;97466.53;5137119;27;20190;-75
2023/08/18 01:51:16;;;;;;;7.47;4.73;;;;;;;24.13;59.92;97467.81;5136779;27;20184;-74
2023/08/18 01:53:42;;;;;;;7.63;4.67;;;;;;;24.08;60.10;97467.72;5137541;27;20696;-74
2023/08/18 01:56:07;;;;;;;7.03;4.90;;;;;;;24.04;60.62;97470.03;5142386;27;20646;-75
2023/08/18 01:58:33;;;;;;;8.10;4.73;;;;;;;24.02;60.54;97469.47;5135361;27;20599;-74
2023/08/18 02:00:58;;;;;;;7.87;4.70;;;;;;;23.96;60.59;97470.38;5144471;27;20567;-73
2023/08/18 02:03:25;;;;;;;4.87;4.37;;;;;;;23.96;60.53;97461.53;5135545;27;20260;-73
2023/08/18 02:05:57;;;;;;;10.20;4.77;;;;;;;23.94;60.58;97464.44;5122309;27;20529;-75
2023/08/18 02:08:22;;;;;;;6.30;4.30;;;;;;;23.89;60.90;97458.94;5105357;27;20518;-75
2023/08/18 02:10:48;;;;;;;10.23;4.80;;;;;;;23.93;60.67;97465.47;5141223;27;20456;-75
2023/08/18 02:13:14;;;;;;;7.47;4.03;;;;;;;23.90;60.46;97460.59;5145550;27;20274;-73
2023/08/18 02:15:40;;;;;;;9.23;3.87;;;;;;;23.87;60.13;97453.84;5122757;27;20433;-74
2023/08/18 02:18:05;;;;;;;13.37;4.93;;;;;;;23.84;59.94;97451.63;5113771;27;20280;-74
2023/08/18 02:20:31;;;;;;;6.40;4.57;;;;;;;23.83;59.67;97454.50;5131279;27;20211;-74
2023/08/18 02:22:57;;;;;;;6.57;4.43;;;;;;;23.84;59.71;97448.13;5140542;27;20426;-74
2023/08/18 02:25:22;;;;;;;5.50;4.27;;;;;;;23.82;59.69;97452.91;5113305;27;20664;-74
2023/08/18 02:27:48;;;;;;;4.93;4.50;;;;;;;23.75;59.54;97456.50;5134454;27;20271;-75
2023/08/18 02:30:14;;;;;;;6.03;3.70;;;;;;;23.74;60.10;97449.50;5118246;27;20246;-73
2023/08/18 02:32:39;;;;;;;8.97;4.33;;;;;;;23.70;59.86;97448.34;5131666;27;20199;-75
2023/08/18 02:35:05;;;;;;;7.10;4.47;;;;;;;23.68;59.71;97447.78;5122351;27;20593;-75
2023/08/18 02:37:31;;;;;;;5.33;4.23;;;;;;;23.70;59.87;97453.69;5131774;27;20599;-75
2023/08/18 02:39:57;;;;;;;6.87;4.30;;;;;;;23.69;58.88;97452.06;5139378;27;20215;-73
2023/08/18 02:42:22;;;;;;;4.93;4.47;;;;;;;23.66;58.97;97449.03;5147809;27;20846;-75
2023/08/18 02:44:48;;;;;;;6.00;4.53;;;;;;;23.67;59.29;97456.00;5140105;27;20241;-75
2023/08/18 02:47:13;;;;;;;6.10;4.20;;;;;;;23.64;59.16;97449.28;5133266;27;20300;-76
2023/08/18 02:49:39;;;;;;;7.30;4.73;;;;;;;23.66;58.92;97447.19;5130383;27;20272;-74
2023/08/18 02:52:04;;;;;;;5.27;4.37;;;;;;;23.54;59.00;97444.50;5126747;27;20249;-72
2023/08/18 02:54:30;;;;;;;6.20;4.40;;;;;;;23.52;59.57;97446.56;5130018;27;20200;-75
2023/08/18 02:56:55;;;;;;;6.90;4.37;;;;;;;23.53;59.22;97447.41;5130827;27;20188;-73
2023/08/18 02:59:21;;;;;;;6.70;4.40;;;;;;;23.52;59.55;97440.41;5131080;27;20672;-73
2023/08/18 03:01:47;;;;;;;7.33;4.73;;;;;;;23.49;59.62;97428.34;5105439;27;20856;-75
2023/08/18 03:04:14;;;;;;;8.50;4.80;;;;;;;23.52;59.49;97432.41;5117508;27;20267;-77
2023/08/18 03:06:40;;;;;;;8.90;4.73;;;;;;;23.49;59.50;97428.34;5119169;27;20191;-74
2023/08/18 03:09:05;;;;;;;5.07;4.00;;;;;;;23.44;59.47;97429.00;5125704;27;20763;-75
2023/08/18 03:11:31;;;;;;;6.73;4.10;;;;;;;23.42;60.07;97425.75;5125475;27;20241;-76
2023/08/18 03:13:56;;;;;;;7.60;4.47;;;;;;;23.40;60.23;97417.16;5130572;27;20211;-74
2023/08/18 03:16:22;;;;;;;8.30;4.20;;;;;;;23.35;60.48;97417.00;5130592;27;20215;-74
2023/08/18 03:18:47;;;;;;;6.50;4.50;;;;;;;23.33;60.56;97416.41;5121810;27;20673;-74
2023/08/18 03:21:13;;;;;;;5.60;4.17;;;;;;;23.29;60.83;97420.63;5129747;27;20219;-75
2023/08/18 03:23:38;;;;;;;7.50;4.80;;;;;;;23.29;60.78;97412.59;5120038;27;20208;-73
2023/08/18 03:26:04;;;;;;;6.83;4.40;;;;;;;23.31;60.32;97413.19;5123530;27;20199;-75
2023/08/18 03:28:31;;;;;;;8.83;5.10;;;;;;;23.24;60.35;97409.78;5119857;27;20216;-76
2023/08/18 03:31:01;;;;;;;6.73;4.50;;;;;;;23.21;60.49;97407.56;5117604;27;20465;-74
2023/08/18 03:33:27;;;;;;;6.87;4.00;;;;;;;23.19;60.71;97406.97;5125451;27;20818;-74
2023/08/18 03:35:53;;;;;;;6.70;4.70;;;;;;;23.13;60.66;97417.53;5141060;27;20428;-73
2023/08/18 03:38:18;;;;;;;4.47;3.87;;;;;;;23.08;61.02;97408.56;5137500;27;20188;-73
2023/08/18 03:40:44;;;;;;;15.37;4.50;;;;;;;23.09;61.18;97411.00;5146628;27;20213;-74
2023/08/18 03:43:09;;;;;;;8.43;4.80;;;;;;;23.07;60.98;97413.06;5137671;27;20274;-73
2023/08/18 03:45:35;;;;;;;5.70;4.47;;;;;;;23.06;60.93;97405.28;5140976;27;20187;-74
2023/08/18 03:48:00;;;;;;;5.40;4.90;;;;;;;23.02;60.97;97419.09;5129552;27;20729;-76
2023/08/18 03:50:26;;;;;;;9.47;4.90;;;;;;;22.98;61.14;97420.63;5129245;27;20212;-74
2023/08/18 03:52:51;;;;;;;7.10;4.47;;;;;;;22.97;61.18;97416.31;5148696;27;20275;-73
2023/08/18 03:55:17;;;;;;;5.40;4.27;;;;;;;22.97;61.09;97421.66;5126361;27;20192;-77
2023/08/18 03:57:43;;;;;;;12.03;5.50;;;;;;;22.94;61.46;97421.28;5144022;27;20191;-76
2023/08/18 04:00:09;;;;;;;8.40;4.73;;;;;;;22.90;60.91;97418.25;5133583;27;20448;-75
2023/08/18 04:02:35;;;;;;;11.10;5.17;;;;;;;22.85;61.18;97416.25;5133824;27;20196;-75
2023/08/18 04:05:01;;;;;;;9.80;4.70;;;;;;;22.82;61.37;97415.91;5145817;27;20436;-75
2023/08/18 04:07:26;;;;;;;6.13;4.40;;;;;;;22.78;61.51;97420.88;5133955;27;20707;-74
2023/08/18 04:09:51;;;;;;;5.50;4.40;;;;;;;22.76;61.72;97416.78;5131358;27;20240;-75
2023/08/18 04:12:17;;;;;;;9.60;4.73;;;;;;;22.74;61.68;97417.03;5143971;27;20196;-72
2023/08/18 04:14:43;;;;;;;5.17;4.67;;;;;;;22.75;61.77;97416.00;5123029;27;20720;-74
2023/08/18 04:17:09;;;;;;;7.20;4.47;;;;;;;22.76;61.60;97416.78;5129311;27;20180;-74
2023/08/18 04:19:34;;;;;;;8.37;4.63;;;;;;;22.74;61.52;97411.69;5132669;27;20505;-75
2023/08/18 04:22:00;;;;;;;6.37;4.43;;;;;;;22.72;61.59;97407.63;5137850;27;20311;-74
2023/08/18 04:24:25;;;;;;;10.03;4.03;;;;;;;22.68;61.61;97410.72;5122043;27;20220;-73
2023/08/18 04:26:59;;;;;;;14.63;4.47;;;;;;;22.63;61.73;97418.59;5106383;27;20210;-74
2023/08/18 04:29:25;;;;;;;6.40;4.60;;;;;;;22.63;61.76;97412.44;5123677;27;20434;-74
2023/08/18 04:31:51;;;;;;;8.63;4.67;;;;;;;22.60;62.05;97427.06;5115211;27;20468;-74
2023/08/18 04:34:17;;;;;;;8.43;4.87;;;;;;;22.55;62.03;97421.56;5130585;27;20437;-76
2023/08/18 04:36:42;;;;;;;11.00;5.57;;;;;;;22.55;61.92;97426.91;5114652;27;20192;-74
2023/08/18 04:39:10;;;;;;;6.13;4.10;;;;;;;22.59;62.20;97432.63;5144633;27;20560;-74
2023/08/18 04:41:35;;;;;;;17.00;5.40;;;;;;;22.58;62.13;97433.66;5131835;27;20540;-74
2023/08/18 04:44:00;;;;;;;12.37;4.80;;;;;;;22.57;62.43;97437.38;5120932;27;20469;-74
2023/08/18 04:46:26;;;;;;;6.33;4.93;;;;;;;22.54;62.42;97436.81;5137751;27;20223;-74
2023/08/18 04:48:51;;;;;;;7.13;5.13;;;;;;;22.60;62.16;97435.09;5138586;27;20565;-75
2023/08/18 04:51:17;;;;;;;10.50;5.30;;;;;;;22.62;62.01;97437.53;5127140;27;20223;-74
2023/08/18 04:53:42;;;;;;;10.50;5.30;;;;;;;22.61;62.16;97443.91;5142103;27;20223;-75
2023/08/18 04:56:09;;;;;;;7.73;4.43;;;;;;;22.62;62.03;97443.66;5124639;27;20224;-75
2023/08/18 04:58:35;;;;;;;9.93;4.73;;;;;;;22.62;62.22;97442.88;5133381;27;20188;-74
2023/08/18 05:01:00;;;;;;;12.53;5.53;;;;;;;22.57;62.17;97451.56;5130515;27;20450;-74
2023/08/18 05:03:26;;;;;;;7.27;5.00;;;;;;;22.54;62.25;97447.47;5133142;27;20228;-76
2023/08/18 05:05:59;;;;;;;10.93;5.60;;;;;;;22.55;62.24;97449.13;5141689;27;20195;-75
2023/08/18 05:08:28;;;;;;;7.27;5.20;;;;;;;22.55;62.19;97454.47;5132037;27;20216;-75
2023/08/18 05:10:56;;;;;;;13.00;5.43;;;;;;;22.59;62.35;97451.31;5117101;27;20474;-73
2023/08/18 05:13:21;;;;;;;10.70;4.90;;;;;;;22.66;62.76;97446.72;5134171;27;20433;-74
2023/08/18 05:15:47;;;;;;;12.57;4.47;;;;;;;22.68;62.77;97447.31;5131696;27;20437;-74
2023/08/18 05:18:12;;;;;;;12.83;5.63;;;;;;;22.75;62.72;97453.38;5133447;27;20218;-74
2023/08/18 05:20:38;;;;;;;9.67;4.90;;;;;;;22.76;62.38;97444.34;5122377;27;20231;-74
2023/08/18 05:23:05;;;;;;;12.33;5.53;;;;;;;22.81;62.53;97449.00;5128572;27;20603;-74
2023/08/18 05:25:31;;;;;;;11.60;5.20;;;;;;;22.83;62.64;97441.56;5109320;28;20276;-74
2023/08/18 05:27:57;;;;;;;5.93;4.80;;;;;;;22.88;62.51;97446.25;5130887;27;20473;-74
2023/08/18 05:30:22;;;;;;;8.00;4.90;;;;;;;22.91;62.48;97453.81;5127620;27;20455;-73
2023/08/18 05:32:48;;;;;;;4.57;4.17;;;;;;;22.96;62.67;97457.44;5139469;27;20661;-74
2023/08/18 05:35:13;;;;;;;9.80;5.03;;;;;;;23.01;62.35;97454.88;5146604;27;20279;-76
2023/08/18 05:37:39;;;;;;;7.23;4.77;;;;;;;23.05;62.55;97449.94;5140784;27;20868;-76
2023/08/18 05:40:05;;;;;;;7.50;5.10;;;;;;;23.13;62.66;97449.59;5133043;27;20235;-75
2023/08/18 05:42:31;;;;;;;13.10;4.97;;;;;;;23.17;62.47;97456.13;5143446;27;20203;-75
2023/08/18 05:44:56;;;;;;;11.73;4.80;;;;;;;23.19;62.34;97452.41;5134429;27;20979;-75
2023/08/18 05:47:21;;;;;;;6.90;4.90;;;;;;;23.25;62.12;97451.50;5124550;27;20767;-76
2023/08/18 05:49:47;;;;;;;5.60;4.50;;;;;;;23.32;60.92;97449.53;5149651;27;20208;-73
2023/08/18 05:52:12;;;;;;;6.90;4.80;;;;;;;23.40;60.88;97446.56;5149531;27;20188;-75
2023/08/18 05:54:38;;;;;;;11.93;4.40;;;;;;;23.50;61.42;97446.00;5114740;27;20289;-73
2023/08/18 05:57:03;;;;;;;7.37;4.37;;;;;;;23.59;60.64;97452.66;5140843;27;20188;-75
2023/08/18 05:59:31;;;;;;;7.50;4.53;;;;;;;23.66;60.74;97452.53;5122464;27;20208;-75
2023/08/18 06:01:57;;;;;;;7.43;4.80;;;;;;;23.75;60.39;97461.84;5134448;27;20216;-77
2023/08/18 06:04:22;;;;;;;4.83;4.00;;;;;;;23.88;60.42;97452.75;5141305;27;20529;-74
2023/08/18 06:06:47;;;;;;;9.97;4.17;;;;;;;23.99;59.89;97456.53;5143286;27;20190;-74
2023/08/18 06:09:13;;;;;;;6.67;3.97;;;;;;;24.13;59.31;97453.63;5145214;27;20550;-74
2023/08/18 06:11:38;;;;;;;7.53;4.57;;;;;;;24.23;58.77;97464.56;5128457;27;20705;-76
2023/08/18 06:14:04;;;;;;;7.33;3.90;;;;;;;24.40;58.88;97467.31;5143118;27;20187;-76
2023/08/18 06:16:29;;;;;;;6.07;3.83;;;;;;;24.53;58.23;97460.91;5150358;27;20194;-76
2023/08/18 06:18:55;;;;;;;8.90;4.53;;;;;;;24.66;57.93;97466.00;5151092;27;20195;-74
2023/08/18 06:21:20;;;;;;;5.80;4.00;;;;;;;24.81;57.85;97467.41;5140671;27;20291;-74
2023/08/18 06:23:46;;;;;;;12.87;4.40;;;;;;;24.97;57.73;97466.63;5122014;27;20219;-75
2023/08/18 06:26:12;;;;;;;9.70;4.13;;;;;;;25.12;57.73;97462.59;5138860;27;20276;-75
2023/08/18 06:28:37;;;;;;;6.33;4.37;;;;;;;25.28;57.36;97469.88;5131462;27;20469;-76
2023/08/18 06:31:06;;;;;;;7.97;4.00;;;;;;;25.44;57.14;97470.19;5122963;27;20240;-75
2023/08/18 06:33:33;;;;;;;11.73;4.13;;;;;;;25.60;56.52;97466.69;5113566;27;20184;-74
2023/08/18 06:35:58;;;;;;;7.40;3.93;;;;;;;25.79;56.42;97470.97;5138951;27;20490;-76
2023/08/18 06:38:24;;;;;;;4.00;3.50;;;;;;;25.97;55.96;97467.22;5130270;27;20527;-74
2023/08/18 06:40:49;;;;;;;7.27;4.00;;;;;;;26.12;55.15;97474.75;5143044;27;20239;-75
2023/08/18 06:43:15;;;;;;;10.60;3.70;;;;;;;26.25;53.66;97481.63;5139361;27;20227;-77
2023/08/18 06:45:40;;;;;;;9.93;3.70;;;;;;;26.30;52.73;97476.34;5130925;27;20184;-75
2023/08/18 06:48:06;;;;;;;6.60;4.00;;;;;;;26.45;52.83;97483.78;5114502;27;20643;-74
2023/08/18 06:50:31;;;;;;;4.33;3.73;;;;;;;26.59;52.21;97478.88;5151448;27;20211;-77
2023/08/18 06:52:56;;;;;;;6.00;3.23;;;;;;;26.75;52.32;97472.59;5141395;27;20391;-75
2023/08/18 06:55:22;;;;;;;9.77;3.20;;;;;;;26.91;52.20;97470.94;5128073;27;20192;-75
2023/08/18 06:57:47;;;;;;;9.13;3.70;;;;;;;27.04;51.80;97479.66;5128974;27;20179;-77
2023/08/18 07:00:13;;;;;;;8.40;3.40;;;;;;;27.21;51.20;97476.91;5133183;27;20298;-75
2023/08/18 07:02:38;;;;;;;3.50;3.20;;;;;;;27.37;50.20;97480.56;5080372;27;20567;-76
2023/08/18 07:05:07;;;;;;;6.87;3.50;;;;;;;27.48;49.90;97478.78;5101917;27;20190;-76
2023/08/18 07:07:33;;;;;;;3.40;3.10;;;;;;;27.59;48.69;97475.94;5081890;27;20270;-75
2023/08/18 07:09:59;;;;;;;4.23;2.87;;;;;;;27.74;48.16;97480.63;5089190;27;20572;-75
2023/08/18 07:12:24;;;;;;;4.73;2.60;;;;;;;27.86;47.22;97477.75;5130289;27;20990;-75
2023/08/18 07:14:50;;;;;;;4.40;2.97;;;;;;;28.00;46.88;97483.50;5130663;27;20230;-74
2023/08/18 07:17:16;;;;;;;5.60;3.13;;;;;;;28.09;46.41;97483.88;5110609;27;20188;-76
2023/08/18 07:19:42;;;;;;;6.10;2.90;;;;;;;28.15;45.86;97482.03;5129814;27;20243;-74
2023/08/18 07:22:07;;;;;;;4.50;3.53;;;;;;;28.29;46.09;97477.81;5129407;27;20426;-75
2023/08/18 07:24:33;;;;;;;8.00;3.63;;;;;;;28.42;46.11;97484.59;5129928;27;20204;-77
2023/08/18 07:26:58;;;;;;;7.83;3.33;;;;;;;28.53;45.57;97481.97;5129651;27;20219;-76
2023/08/18 07:29:24;;;;;;;6.70;2.90;;;;;;;28.65;45.24;97479.88;5142596;27;20751;-75
2023/08/18 07:31:49;;;;;;;4.33;3.33;;;;;;;28.57;44.36;97485.75;5143468;27;20609;-76
2023/08/18 07:34:14;;;;;;;5.00;3.20;;;;;;;28.45;45.49;97485.97;5140877;27;20187;-75
2023/08/18 07:36:40;;;;;;;4.57;2.83;;;;;;;28.66;44.86;97490.38;5135129;27;20276;-75
2023/08/18 07:39:10;;;;;;;5.57;2.90;;;;;;;28.76;44.38;97492.34;5131536;27;20187;-78
2023/08/18 07:41:38;;;;;;;8.87;3.00;;;;;;;28.93;43.58;97497.53;5141258;27;20704;-75
2023/08/18 07:44:03;;;;;;;9.40;3.07;;;;;;;29.09;43.66;97501.06;5139305;27;20505;-76
2023/08/18 07:46:30;;;;;;;10.70;2.97;;;;;;;29.21;43.40;97513.50;5136829;27;20864;-75
2023/08/18 07:48:55;;;;;;;7.13;2.80;;;;;;;28.84;40.98;97511.78;5128894;27;20251;-76
2023/08/18 07:51:21;;;;;;;5.07;2.57;;;;;;;28.74;42.22;97504.44;5125632;27;20482;-75
2023/08/18 07:53:46;;;;;;;5.20;2.33;;;;;;;28.95;41.56;97508.88;5124884;27;20188;-76
2023/08/18 07:56:12;;;;;;;5.03;2.50;;;;;;;29.26;42.29;97508.94;5122921;27;20595;-75
2023/08/18 07:58:37;;;;;;;7.77;2.93;;;;;;;29.43;41.96;97511.41;5141998;27;20184;-75
2023/08/18 08:01:03;;;;;;;7.67;3.00;;;;;;;29.63;42.22;97509.00;5130491;27;20302;-75
2023/08/18 08:03:28;;;;;;;4.40;2.90;;;;;;;29.85;42.04;97506.88;5129783;27;20242;-74
2023/08/18 08:05:54;;;;;;;10.60;2.63;;;;;;;30.10;41.63;97502.56;5145877;27;20192;-75
2023/08/18 08:08:19;;;;;;;10.90;2.73;;;;;;;30.25;40.22;97499.00;5119872;27;20244;-75
2023/08/18 08:10:45;;;;;;;3.60;2.70;;;;;;;30.25;39.69;97501.72;5115538;27;20265;-76
2023/08/18 08:13:10;;;;;;;4.20;2.57;;;;;;;30.29;39.05;97504.66;5136249;27;20607;-75
2023/08/18 08:15:36;;;;;;;4.63;2.40;;;;;;;30.18;38.41;97498.50;5117144;27;20203;-75
2023/08/18 08:18:03;;;;;;;7.30;2.33;;;;;;;30.16;38.69;97501.44;5126184;27;20184;-76
2023/08/18 08:20:28;;;;;;;6.87;2.40;;;;;;;30.12;38.35;97497.66;5121144;27;20212;-75
2023/08/18 08:22:54;;;;;;;5.10;2.40;;;;;;;30.18;39.11;97504.69;5128507;27;20484;-76
2023/08/18 08:25:19;;;;;;;7.70;2.83;;;;;;;30.31;38.26;97502.50;5143266;27;20284;-75
2023/08/18 08:27:45;;;;;;;9.90;2.70;;;;;;;30.29;38.62;97499.25;5125531;27;20287;-75
2023/08/18 08:30:12;;;;;;;5.50;2.20;;;;;;;30.58;39.38;97491.38;5120126;27;21008;-75
2023/08/18 08:32:37;;;;;;;6.33;2.50;;;;;;;30.91;38.86;97489.09;5136056;27;20199;-76
2023/08/18 08:35:03;;;;;;;5.93;2.70;;;;;;;31.14;38.55;97491.41;5137111;27;20414;-76
2023/08/18 08:37:29;;;;;;;5.53;2.50;;;;;;;31.26;37.26;97494.59;5131431;27;20653;-76
2023/08/18 08:39:54;;;;;;;10.60;2.30;;;;;;;31.25;37.54;97491.06;5138688;27;20219;-75
2023/08/18 08:42:20;;;;;;;3.80;1.97;;;;;;;31.47;37.08;97489.03;5136497;27;20554;-77
2023/08/18 08:44:46;;;;;;;5.97;2.80;;;;;;;31.71;37.22;97484.56;5110402;28;20184;-75
2023/08/18 08:47:12;;;;;;;5.83;2.40;;;;;;;31.94;36.53;97486.81;5136724;27;20245;-76
2023/08/18 08:49:39;;;;;;;4.07;1.70;;;;;;;32.20;35.79;97487.34;5131348;27;20238;-77
2023/08/18 08:52:10;;;;;;;6.23;2.43;;;;;;;32.39;35.51;97478.50;5109875;27;20785;-76
2023/08/18 08:54:52;;;;;;;5.37;2.17;;;;;;;32.60;34.90;97482.59;5119453;28;20433;-75
2023/08/18 08:57:20;;;;;;;5.63;2.30;;;;;;;32.80;34.00;97488.06;5136983;27;20417;-76
2023/08/18 08:59:45;;;;;;;6.50;2.00;;;;;;;32.90;34.20;97486.03;5110803;28;20458;-75
2023/08/18 09:02:11;;;;;;;6.00;2.20;;;;;;;32.76;33.63;97485.13;5113940;27;20529;-75
2023/08/18 09:04:36;;;;;;;4.57;2.27;;;;;;;32.93;34.07;97490.88;5138164;27;20188;-76
2023/08/18 09:07:01;;;;;;;4.07;2.00;;;;;;;33.04;33.39;97482.59;5132458;27;20740;-74
2023/08/18 09:09:27;;;;;;;4.70;2.00;;;;;;;33.13;33.32;97494.44;5128886;27;20212;-75
2023/08/18 09:11:59;;;;;;;10.20;2.20;;;;;;;32.87;33.37;97485.81;5133439;27;20184;-76
2023/08/18 09:14:25;;;;;;;4.10;2.10;;;;;;;33.11;32.62;97491.22;5114600;27;20192;-76
2023/08/18 09:16:52;;;;;;;6.07;2.20;;;;;;;33.32;32.89;97496.34;5132798;27;20840;-75
2023/08/18 09:19:18;;;;;;;5.70;2.10;;;;;;;33.55;31.73;97491.94;5132426;27;20422;-76
2023/08/18 09:21:43;;;;;;;3.27;1.87;;;;;;;33.53;31.77;97491.44;5141204;27;20449;-75
2023/08/18 09:24:09;;;;;;;3.17;1.77;;;;;;;33.72;29.90;97496.84;5132154;27;20271;-75
2023/08/18 09:26:34;;;;;;;2.20;1.63;;;;;;;33.96;30.32;97495.91;5132369;27;20573;-75
2023/08/18 09:29:00;;;;;;;7.90;1.80;;;;;;;34.18;30.61;97489.00;5139450;27;20235;-74
2023/08/18 09:31:25;;;;;;;4.23;1.90;;;;;;;34.37;30.77;97489.75;5125339;27;20272;-76
2023/08/18 09:33:54;;;;;;;7.23;2.33;;;;;;;34.14;30.68;97483.38;5132689;27;20263;-76
2023/08/18 09:36:20;;;;;;;5.17;1.90;;;;;;;34.26;30.01;97486.41;5130970;27;20291;-76
2023/08/18 09:38:46;;;;;;;5.23;2.37;;;;;;;34.42;31.18;97488.84;5113409;27;20516;-76
2023/08/18 09:41:12;;;;;;;7.90;2.00;;;;;;;34.67;30.39;97484.00;5116458;27;20229;-76
2023/08/18 09:43:38;;;;;;;7.60;1.70;;;;;;;34.68;30.49;97475.53;5105851;27;20183;-76
2023/08/18 09:46:05;;;;;;;4.13;1.60;;;;;;;34.96;30.71;97470.09;5132350;27;20410;-77
2023/08/18 09:48:35;;;;;;;3.57;1.50;;;;;;;35.14;29.75;97472.97;5139929;27;20452;-76
2023/08/18 09:51:02;;;;;;;3.50;1.80;;;;;;;35.27;29.84;97472.13;5140921;27;20445;-75
2023/08/18 09:53:30;;;;;;;7.87;1.90;;;;;;;35.26;29.52;97473.22;5116298;27;20785;-77
2023/08/18 09:55:59;;;;;;;5.60;1.80;;;;;;;35.33;30.07;97465.44;5137523;27;20418;-77
2023/08/18 09:58:33;;;;;;;6.10;1.90;;;;;;;35.60;29.56;97473.84;5115037;27;20834;-78
2023/08/18 10:00:58;;;;;;;4.57;1.80;;;;;;;35.85;29.45;97466.91;5134907;27;20497;-76
2023/08/18 10:03:30;;;;;;;6.43;2.10;;;;;;;35.96;29.11;97473.75;5104650;27;20425;-76
2023/08/18 10:05:55;;;;;;;6.30;1.83;;;;;;;35.89;27.99;97462.47;5122110;27;20703;-76
2023/08/18 10:08:21;;;;;;;3.40;1.50;;;;;;;35.60;28.82;97469.19;5077499;27;20450;-76
2023/08/18 10:10:47;;;;;;;4.70;1.97;;;;;;;35.55;28.86;97466.56;5076655;28;20249;-76
2023/08/18 10:13:13;;;;;;;5.83;1.63;;;;;;;35.69;28.34;97461.06;5139342;27;20420;-76
2023/08/18 10:15:39;;;;;;;3.60;1.70;;;;;;;35.72;29.06;97465.06;5148146;27;20184;-76
2023/08/18 10:18:09;;;;;;;4.47;1.57;;;;;;;35.94;28.55;97467.78;5131551;27;20764;-76
2023/08/18 10:20:35;;;;;;;1.73;1.60;;;;;;;35.89;28.38;97467.91;5129267;27;20203;-77
2023/08/18 10:23:02;;;;;;;1.90;1.80;;;;;;;35.63;29.14;97457.66;5147715;27;20449;-76
2023/08/18 10:25:29;;;;;;;4.30;1.70;;;;;;;35.56;29.00;97461.94;5141381;27;20445;-77
2023/08/18 10:27:55;;;;;;;5.83;1.60;;;;;;;35.68;28.06;97457.50;5128298;27;20458;-76
2023/08/18 10:30:20;;;;;;;2.13;1.50;;;;;;;35.81;28.01;97455.84;5139452;27;20531;-76
2023/08/18 10:32:45;;;;;;;3.00;1.60;;;;;;;35.96;28.38;97456.59;5130737;27;20184;-76
2023/08/18 10:35:22;;;;;;;3.23;2.13;;;;;;;36.35;28.16;97451.44;5120777;27;20270;-75
2023/08/18 10:37:50;;;;;;;4.73;1.83;;;;;;;36.57;28.30;97440.47;5113732;27;20199;-75
2023/08/18 10:40:26;;;;;;;6.23;1.90;;;;;;;36.76;28.54;97450.31;5136009;27;20425;-75
2023/08/18 10:42:53;;;;;;;3.73;1.63;;;;;;;36.47;27.75;97448.16;5137871;27;21045;-76
2023/08/18 10:45:29;;;;;;;2.73;1.77;;;;;;;36.58;27.95;97452.97;5139204;27;20416;-76
2023/08/18 10:47:59;;;;;;;2.63;1.60;;;;;;;36.60;27.52;97452.69;5130830;27;20448;-75
2023/08/18 10:50:27;;;;;;;2.50;2.00;;;;;;;36.87;28.15;97439.84;5139780;27;20445;-76
2023/08/18 10:52:54;;;;;;;7.10;1.77;;;;;;;37.00;28.00;97447.13;5143583;27;20420;-76
2023/08/18 10:55:21;;;;;;;10.50;2.07;;;;;;;37.10;27.56;97442.50;5115206;27;20436;-75
2023/08/18 10:57:46;;;;;;;7.73;1.90;;;;;;;37.19;26.57;97441.34;5135230;27;20454;-74
2023/08/18 11:00:12;;;;;;;4.03;1.70;;;;;;;37.24;26.60;97437.63;5113045;27;20475;-76
2023/08/18 11:02:38;;;;;;;4.93;1.70;;;;;;;37.46;28.08;97435.91;5117363;27;20188;-76
2023/08/18 11:05:07;;;;;;;4.77;2.23;;;;;;;37.59;26.58;97434.09;5123704;27;20179;-75
2023/08/18 11:07:33;;;;;;;4.83;1.70;;;;;;;37.44;26.53;97430.75;5140347;27;20290;-75
2023/08/18 11:09:58;;;;;;;2.70;1.67;;;;;;;37.43;26.07;97425.59;5127234;27;20539;-75
2023/08/18 11:12:24;;;;;;;5.30;2.20;;;;;;;37.35;25.91;97421.72;5148787;27;20190;-77
2023/08/18 11:14:49;;;;;;;3.13;1.93;;;;;;;37.52;26.53;97417.41;5112042;27;20196;-75
2023/08/18 11:17:15;;;;;;;2.50;1.60;;;;;;;37.62;25.82;97426.03;5147459;27;20644;-74
2023/08/18 11:19:40;;;;;;;2.93;1.50;;;;;;;37.78;25.31;97409.94;5130269;27;20260;-75
2023/08/18 11:22:06;;;;;;;2.80;1.40;;;;;;;37.78;24.18;97412.66;5139079;27;20175;-74
2023/08/18 11:24:32;;;;;;;5.43;1.20;;;;;;;37.90;25.33;97408.47;5136995;27;20607;-75
2023/08/18 11:26:58;;;;;;;2.97;1.50;;;;;;;38.00;24.44;97399.91;5111923;27;20179;-76